createdAt,value
2023-09-10T00:04:45.685Z,10.02
2023-09-10T00:09:47.152Z,10.25
2023-09-10T00:14:48.626Z,13.65
2023-09-10T00:19:50.214Z,10.40
2023-09-10T00:24:51.719Z,12.77
2023-09-10T00:29:53.205Z,9.75
2023-09-10T00:34:54.762Z,9.07
2023-09-10T00:39:56.259Z,12.00
2023-09-10T00:44:57.871Z,9.63
2023-09-10T00:50:00.305Z,9.75
2023-09-10T00:55:01.890Z,8.70
2023-09-10T01:00:08.933Z,8.50
2023-09-10T01:05:12.416Z,11.77
2023-09-10T01:10:14.691Z,11.07
2023-09-10T01:15:16.182Z,8.07
2023-09-10T01:20:27.312Z,8.43
2023-09-10T01:25:30.218Z,7.88
2023-09-10T01:30:32.591Z,10.52
2023-09-10T01:35:41.206Z,11.70
2023-09-10T01:40:50.072Z,9.38
2023-09-10T01:45:52.152Z,7.70
2023-09-10T01:50:55.279Z,8.45
2023-09-10T01:55:57.321Z,8.63
2023-09-10T02:00:58.816Z,7.38
2023-09-10T02:06:04.473Z,9.40
2023-09-10T02:11:06.588Z,15.50
2023-09-10T02:16:09.313Z,9.45
2023-09-10T02:21:14.027Z,10.82
2023-09-10T02:26:17.063Z,13.35
2023-09-10T02:31:22.093Z,10.32
2023-09-10T02:36:23.635Z,11.98
2023-09-10T02:41:25.136Z,9.02
2023-09-10T02:46:29.006Z,9.63
2023-09-10T02:51:30.683Z,9.23
2023-09-10T02:56:32.461Z,9.05
2023-09-10T03:01:34.012Z,11.73
2023-09-10T03:06:35.522Z,8.65
2023-09-10T03:11:39.073Z,8.05
2023-09-10T03:16:41.460Z,9.57
2023-09-10T03:21:44.832Z,8.90
2023-09-10T03:26:46.507Z,9.43
2023-09-10T03:31:48.118Z,9.43
2023-09-10T03:36:49.661Z,8.90
2023-09-10T03:41:53.121Z,9.45
2023-09-10T03:46:55.061Z,10.85
2023-09-10T03:51:58.702Z,21.75
2023-09-10T03:57:00.313Z,13.93
2023-09-10T04:02:01.961Z,10.68
2023-09-10T04:07:04.393Z,11.05
2023-09-10T04:12:06.073Z,8.93
2023-09-10T04:17:07.669Z,12.80
2023-09-10T04:22:09.263Z,9.88
2023-09-10T04:27:10.888Z,13.80
2023-09-10T04:32:12.600Z,11.05
2023-09-10T04:37:15.726Z,13.18
2023-09-10T04:42:17.555Z,16.25
2023-09-10T04:47:19.235Z,10.93
2023-09-10T04:52:20.955Z,17.27
2023-09-10T04:57:22.533Z,15.43
2023-09-10T05:02:24.508Z,11.48
2023-09-10T05:07:26.172Z,17.90
2023-09-10T05:12:27.718Z,11.90
2023-09-10T05:17:29.325Z,13.10
2023-09-10T05:22:31.081Z,14.02
2023-09-10T05:27:33.268Z,12.18
2023-09-10T05:32:35.633Z,11.90
2023-09-10T05:37:37.302Z,15.40
2023-09-10T05:42:38.922Z,12.80
2023-09-10T05:47:40.550Z,11.05
2023-09-10T05:52:42.175Z,14.13
2023-09-10T05:57:43.756Z,14.15
2023-09-10T06:02:45.354Z,12.55
2023-09-10T06:07:49.185Z,11.88
2023-09-10T06:12:50.901Z,20.65
2023-09-10T06:17:52.583Z,10.88
2023-09-10T06:22:54.176Z,16.33
2023-09-10T06:27:56.020Z,12.38
2023-09-10T06:32:58.000Z,13.35
2023-09-10T06:37:59.841Z,12.48
2023-09-10T06:43:01.487Z,12.50
2023-09-10T06:48:15.932Z,13.15
2023-09-10T06:53:17.425Z,13.73
2023-09-10T06:58:19.163Z,14.98
2023-09-10T07:03:20.731Z,14.70
2023-09-10T07:08:22.203Z,16.58
2023-09-10T07:13:23.734Z,13.38
2023-09-10T07:18:25.216Z,14.63
2023-09-10T07:23:27.553Z,15.70
2023-09-10T07:28:29.100Z,15.00
2023-09-10T07:33:30.582Z,15.60
2023-09-10T07:38:32.685Z,11.88
2023-09-10T07:43:34.196Z,12.05
2023-09-10T07:48:36.506Z,12.77
2023-09-10T07:53:38.104Z,10.55
2023-09-10T07:58:39.862Z,11.80
2023-09-10T08:03:43.291Z,9.18
2023-09-10T08:08:44.958Z,15.52
2023-09-10T08:13:46.646Z,10.68
2023-09-10T08:18:48.178Z,8.85
2023-09-10T08:23:50.010Z,11.38
2023-09-10T08:28:52.854Z,16.17
2023-09-10T08:33:54.399Z,11.73
2023-09-10T08:38:56.103Z,8.65
2023-09-10T08:43:59.334Z,11.70
2023-09-10T08:49:02.121Z,11.95
2023-09-10T08:54:04.044Z,9.95
2023-09-10T08:59:07.523Z,12.32
2023-09-10T09:04:10.226Z,14.15
2023-09-10T09:09:15.831Z,11.43
2023-09-10T09:14:18.932Z,11.70
2023-09-10T09:19:22.996Z,9.98
2023-09-10T09:24:26.101Z,10.82
2023-09-10T09:29:29.820Z,13.95
2023-09-10T09:34:33.547Z,9.63
2023-09-10T09:39:36.009Z,11.70
2023-09-10T09:44:37.754Z,9.38
2023-09-10T09:49:46.036Z,8.10
2023-09-10T09:54:50.695Z,11.73
2023-09-10T09:59:52.628Z,8.27
2023-09-10T10:04:55.156Z,7.28
2023-09-10T10:09:59.410Z,11.48
2023-09-10T10:15:01.075Z,6.85
2023-09-10T10:20:06.097Z,9.50
2023-09-10T10:25:08.945Z,6.10
2023-09-10T10:30:11.304Z,5.60
2023-09-10T10:35:13.364Z,6.07
2023-09-10T10:40:19.779Z,11.82
2023-09-10T10:45:25.386Z,7.78
2023-09-10T10:50:28.393Z,7.28
2023-09-10T10:55:31.772Z,7.45
2023-09-10T11:00:33.879Z,5.65
2023-09-10T11:06:07.914Z,6.72
2023-09-10T11:11:32.331Z,10.23
2023-09-10T11:16:37.943Z,5.28
2023-09-10T11:21:54.799Z,5.47
2023-09-10T11:27:22.354Z,5.05
2023-09-10T11:32:23.871Z,4.70
2023-09-10T11:37:25.628Z,5.15
2023-09-10T11:42:27.501Z,7.72
2023-09-10T11:47:30.034Z,5.00
2023-09-10T11:52:31.975Z,5.35
2023-09-10T11:57:33.643Z,4.13
2023-09-10T12:02:37.118Z,6.53
2023-09-10T12:07:38.811Z,5.18
2023-09-10T12:12:43.791Z,7.03
2023-09-10T12:17:45.637Z,4.65
2023-09-10T12:22:47.340Z,5.63
2023-09-10T12:27:48.877Z,3.70
2023-09-10T12:32:51.839Z,7.35
2023-09-10T12:37:55.278Z,6.38
2023-09-10T12:42:56.880Z,4.13
2023-09-10T12:47:58.507Z,6.22
2023-09-10T12:53:01.439Z,3.38
2023-09-10T12:58:03.381Z,7.43
2023-09-10T13:03:05.447Z,5.45
2023-09-10T13:08:07.327Z,4.72
2023-09-10T13:13:08.937Z,5.00
2023-09-10T13:18:10.701Z,4.20
2023-09-10T13:23:12.400Z,6.80
2023-09-10T13:28:13.987Z,8.98
2023-09-10T13:33:15.583Z,4.28
2023-09-10T13:38:17.194Z,5.57
2023-09-10T13:43:18.680Z,5.88
2023-09-10T13:48:20.314Z,4.50
2023-09-10T13:53:21.968Z,7.93
2023-09-10T13:58:23.483Z,4.15
2023-09-10T14:03:27.858Z,4.57
2023-09-10T14:08:29.460Z,6.82
2023-09-10T14:13:30.946Z,5.65
2023-09-10T14:18:33.489Z,4.78
2023-09-10T14:23:35.086Z,4.97
2023-09-10T14:28:36.631Z,4.80
2023-09-10T14:33:38.723Z,5.50
2023-09-10T14:38:40.624Z,4.03
2023-09-10T14:43:42.498Z,5.70
2023-09-10T14:48:44.221Z,5.85
2023-09-10T14:53:45.848Z,5.75
2023-09-10T14:58:48.452Z,5.30
2023-09-10T15:03:50.253Z,3.38
2023-09-10T15:08:52.056Z,5.65
2023-09-10T15:13:53.538Z,3.95
2023-09-10T15:18:55.031Z,5.53
2023-09-10T15:23:56.542Z,5.65
2023-09-10T15:28:58.193Z,5.07
2023-09-10T15:33:59.774Z,5.95
2023-09-10T15:39:01.300Z,6.10
2023-09-10T15:44:02.944Z,2.88
2023-09-10T15:49:07.888Z,3.40
2023-09-10T15:54:09.433Z,5.53
2023-09-10T15:59:10.981Z,6.85
2023-09-10T16:04:12.592Z,3.75
2023-09-10T16:09:14.199Z,6.22
2023-09-10T16:14:15.717Z,6.47
2023-09-10T16:19:17.256Z,4.60
2023-09-10T16:24:18.734Z,5.70
2023-09-10T16:29:20.266Z,6.35
2023-09-10T16:34:21.776Z,9.50
2023-09-10T16:39:23.292Z,6.63
2023-09-10T16:44:29.171Z,5.13
2023-09-10T16:49:30.860Z,6.28
2023-09-10T16:54:32.350Z,6.00
2023-09-10T16:59:33.865Z,5.60
2023-09-10T17:04:35.484Z,3.25
2023-09-10T17:09:37.432Z,11.63
2023-09-10T17:14:39.050Z,9.88
2023-09-10T17:19:42.827Z,8.98
2023-09-10T17:24:44.381Z,11.13
2023-09-10T17:29:45.980Z,13.10
2023-09-10T17:34:47.905Z,8.18
2023-09-10T17:39:53.032Z,9.77
2023-09-10T17:44:58.359Z,6.28
2023-09-10T17:50:07.023Z,5.57
2023-09-10T17:55:09.039Z,7.50
2023-09-10T18:00:11.084Z,11.13
2023-09-10T18:05:12.581Z,9.10
2023-09-10T18:10:14.260Z,6.72
2023-09-10T18:15:16.328Z,5.47
2023-09-10T18:20:17.977Z,8.75
2023-09-10T18:25:21.209Z,9.10
2023-09-10T18:30:25.106Z,10.43
2023-09-10T18:35:26.678Z,5.53
2023-09-10T18:40:28.192Z,9.32
2023-09-10T18:45:30.581Z,9.88
2023-09-10T18:50:32.149Z,8.55
2023-09-10T18:55:33.813Z,11.32
2023-09-10T19:00:35.758Z,10.45
2023-09-10T19:05:42.256Z,9.43
2023-09-10T19:10:43.930Z,17.00
2023-09-10T19:15:46.073Z,12.50
2023-09-10T19:20:49.618Z,11.05
2023-09-10T19:25:52.618Z,8.18
2023-09-10T19:30:55.748Z,8.18
2023-09-10T19:36:03.546Z,12.23
2023-09-10T19:41:05.250Z,4.60
2023-09-10T19:46:06.806Z,7.97
2023-09-10T19:51:08.812Z,6.60
2023-09-10T19:56:13.860Z,7.68
2023-09-10T20:01:15.963Z,8.25
2023-09-10T20:06:17.597Z,9.55
2023-09-10T20:11:19.229Z,11.43
2023-09-10T20:16:21.040Z,12.55
2023-09-10T20:21:23.020Z,10.20
2023-09-10T20:26:25.353Z,11.13
2023-09-10T20:31:26.987Z,8.95
2023-09-10T20:36:28.635Z,10.50
2023-09-10T20:41:30.297Z,12.70
2023-09-10T20:46:34.628Z,8.35
2023-09-10T20:51:37.317Z,10.88
2023-09-10T20:56:38.929Z,7.90
2023-09-10T21:01:40.599Z,8.07
2023-09-10T21:06:42.263Z,15.27
2023-09-10T21:11:44.020Z,14.30
2023-09-10T21:16:45.581Z,14.38
2023-09-10T21:21:47.182Z,12.10
2023-09-10T21:26:48.675Z,9.82
2023-09-10T21:31:50.341Z,13.98
2023-09-10T21:36:53.360Z,17.45
2023-09-10T21:41:54.883Z,9.07
2023-09-10T21:46:56.427Z,10.63
2023-09-10T21:51:57.946Z,8.63
2023-09-10T21:56:59.530Z,8.05
2023-09-10T22:02:01.205Z,8.15
2023-09-10T22:07:03.406Z,7.28
2023-09-10T22:12:08.354Z,10.02
2023-09-10T22:17:10.159Z,12.95
2023-09-10T22:22:11.836Z,7.25
2023-09-10T22:27:13.321Z,9.98
2023-09-10T22:32:15.371Z,7.68
2023-09-10T22:37:16.860Z,8.43
2023-09-10T22:42:19.350Z,10.75
2023-09-10T22:47:20.963Z,10.15
2023-09-10T22:52:22.455Z,9.95
2023-09-10T22:57:23.939Z,9.93
2023-09-10T23:02:25.974Z,8.85
2023-09-10T23:07:27.655Z,8.82
2023-09-10T23:12:31.496Z,13.15
2023-09-10T23:17:33.045Z,11.23
2023-09-10T23:22:34.604Z,12.13
2023-09-10T23:27:36.673Z,15.50
2023-09-10T23:32:38.618Z,14.98
2023-09-10T23:37:40.346Z,10.38
2023-09-10T23:42:41.815Z,12.38
2023-09-10T23:47:43.456Z,11.45
2023-09-10T23:52:45.069Z,13.85
2023-09-10T23:57:46.522Z,11.15
